Time;durP1;ratioP1;P1;durP2;ratioP2;P2;SDS_P1;SDS_P2;PMS_P1;PMS_P2;Temp;Humidity;BMP_temperature;BMP_pressure;BME280_temperature;BME280_humidity;BME280_pressure;Samples;Min_cycle;Max_cycle;Signal;HPM_P1;HPM_P2
2023/05/26 00:01:18;;;;;;;28.80;5.75;;;11.90;99.90;;;;;;5066001;28;20399;-58
2023/05/26 00:03:48;;;;;;;27.10;5.75;;;11.90;99.90;;;;;;5066824;28;20045;-58
2023/05/26 00:06:15;;;;;;;28.67;5.65;;;11.80;99.90;;;;;;5072172;28;20129;-58
2023/05/26 00:08:42;;;;;;;35.90;5.50;;;11.80;99.90;;;;;;5086294;28;20101;-60
2023/05/26 00:11:09;;;;;;;27.92;5.82;;;11.80;99.90;;;;;;5078201;28;20048;-58
2023/05/26 00:13:36;;;;;;;35.70;7.35;;;11.80;99.90;;;;;;5067630;28;20109;-59
2023/05/26 00:16:03;;;;;;;35.72;5.45;;;11.70;99.90;;;;;;5062723;28;20695;-59
2023/05/26 00:18:31;;;;;;;32.08;5.82;;;11.70;99.90;;;;;;5059391;28;20040;-57
2023/05/26 00:20:58;;;;;;;19.02;5.15;;;11.60;99.90;;;;;;5059615;28;20063;-59
2023/05/26 00:23:25;;;;;;;34.92;5.10;;;11.70;99.90;;;;;;5061175;28;20067;-59
2023/05/26 00:25:52;;;;;;;31.17;7.70;;;11.70;99.90;;;;;;5061813;28;20049;-59
2023/05/26 00:28:18;;;;;;;28.25;6.15;;;11.70;99.90;;;;;;5063000;28;20048;-60
2023/05/26 00:30:45;;;;;;;31.98;7.40;;;11.60;99.90;;;;;;5054564;28;20519;-57
2023/05/26 00:36:00;;;;;;;30.13;5.88;;;11.60;99.90;;;;;;4730518;23;20132;-60
2023/05/26 00:38:27;;;;;;;24.85;4.85;;;11.60;99.90;;;;;;5046531;28;20076;-60
2023/05/26 00:40:53;;;;;;;36.70;6.30;;;11.60;99.90;;;;;;5043438;28;20049;-60
2023/05/26 00:43:20;;;;;;;28.42;5.22;;;11.50;99.90;;;;;;5021922;28;20212;-60
2023/05/26 00:45:47;;;;;;;28.48;7.07;;;11.60;99.90;;;;;;5034675;28;20103;-60
2023/05/26 00:48:14;;;;;;;24.13;6.10;;;11.60;99.90;;;;;;5046343;28;20056;-60
2023/05/26 00:50:41;;;;;;;33.20;6.75;;;11.50;99.90;;;;;;5032252;28;20049;-60
2023/05/26 00:53:08;;;;;;;39.22;4.90;;;11.50;99.90;;;;;;5022482;28;20049;-61
2023/05/26 00:55:35;;;;;;;25.02;6.13;;;11.50;99.90;;;;;;5041089;28;20163;-60
2023/05/26 00:58:02;;;;;;;28.92;4.45;;;11.50;99.90;;;;;;5021117;28;20056;-60
2023/05/26 01:00:28;;;;;;;30.27;5.53;;;11.50;99.90;;;;;;5026311;28;20045;-62
2023/05/26 01:02:57;;;;;;;33.05;5.80;;;11.50;99.90;;;;;;5019685;28;20080;-60
2023/05/26 01:05:23;;;;;;;32.78;6.90;;;11.50;99.90;;;;;;5042459;28;20167;-60
2023/05/26 01:07:50;;;;;;;27.80;4.68;;;11.50;99.90;;;;;;5019109;28;20610;-60
2023/05/26 01:10:17;;;;;;;23.45;5.28;;;11.50;99.90;;;;;;5038916;28;20495;-60
2023/05/26 01:12:52;;;;;;;31.98;6.30;;;11.50;99.90;;;;;;5021620;28;20041;-59
2023/05/26 01:15:42;;;;;;;31.67;5.57;;;11.50;99.90;;;;;;5048624;28;20049;-60
2023/05/26 01:18:13;;;;;;;23.27;4.78;;;11.60;99.90;;;;;;5020644;28;20063;-60
2023/05/26 01:20:45;;;;;;;27.13;5.05;;;11.50;99.90;;;;;;5023617;28;20640;-59
2023/05/26 01:23:27;;;;;;;41.00;9.32;;;11.50;99.90;;;;;;5039275;28;20056;-59
2023/05/26 01:25:58;;;;;;;26.05;6.25;;;11.50;99.90;;;;;;5024006;28;20106;-59
2023/05/26 01:28:26;;;;;;;30.23;5.22;;;11.60;99.90;;;;;;5021295;28;20048;-59
2023/05/26 01:30:53;;;;;;;35.75;5.60;;;11.60;99.90;;;;;;5022587;28;20103;-60
2023/05/26 01:33:20;;;;;;;22.90;5.40;;;11.60;99.90;;;;;;5041426;28;20041;-61
2023/05/26 01:35:47;;;;;;;34.60;5.93;;;11.60;99.90;;;;;;5040199;28;20071;-60
2023/05/26 01:38:14;;;;;;;31.30;6.18;;;11.60;99.90;;;;;;5039389;28;20049;-60
2023/05/26 01:40:43;;;;;;;28.15;5.00;;;11.60;99.90;;;;;;5023320;28;20138;-60
2023/05/26 01:43:23;;;;;;;26.65;6.10;;;11.60;99.90;;;;;;5021003;28;20052;-60
2023/05/26 01:45:57;;;;;;;32.05;6.25;;;11.70;99.90;;;;;;5028254;28;20175;-61
2023/05/26 01:48:24;;;;;;;27.02;5.10;;;11.60;99.90;;;;;;5022365;28;20049;-60
2023/05/26 01:50:51;;;;;;;30.17;5.43;;;11.70;99.90;;;;;;5015964;28;20053;-60
2023/05/26 01:53:20;;;;;;;38.30;7.15;;;11.70;99.90;;;;;;5026802;28;20134;-60
2023/05/26 01:55:49;;;;;;;27.23;6.60;;;11.70;99.90;;;;;;5036220;28;20656;-60
2023/05/26 01:58:15;;;;;;;30.10;5.25;;;11.70;99.90;;;;;;5025793;28;20064;-60
2023/05/26 02:00:46;;;;;;;24.50;4.50;;;11.80;99.90;;;;;;5024740;28;20075;-59
2023/05/26 02:03:13;;;;;;;27.08;4.97;;;11.70;99.90;;;;;;5043819;28;20049;-60
2023/05/26 02:05:41;;;;;;;26.17;5.25;;;11.70;99.90;;;;;;5018293;28;20073;-60
2023/05/26 02:08:10;;;;;;;32.10;6.43;;;11.60;99.90;;;;;;5046591;28;20131;-58
2023/05/26 02:10:37;;;;;;;36.45;8.82;;;11.50;99.90;;;;;;5032714;28;20056;-60
2023/05/26 02:13:04;;;;;;;26.35;6.53;;;11.60;99.90;;;;;;5033067;28;20114;-59
2023/05/26 02:15:31;;;;;;;30.88;4.43;;;11.70;99.90;;;;;;5036188;28;20135;-59
2023/05/26 02:17:58;;;;;;;20.65;4.97;;;11.70;99.90;;;;;;4680768;28;10000147;-59
2023/05/26 02:20:25;;;;;;;39.33;6.30;;;11.70;99.90;;;;;;5023154;28;20211;-59
2023/05/26 02:22:52;;;;;;;29.70;5.22;;;11.70;99.90;;;;;;5048080;28;20057;-59
2023/05/26 02:25:19;;;;;;;27.45;5.00;;;11.70;99.90;;;;;;5037402;28;20090;-59
2023/05/26 02:27:46;;;;;;;21.45;4.75;;;11.70;99.90;;;;;;5033707;28;20048;-59
2023/05/26 02:30:13;;;;;;;29.55;6.18;;;11.70;99.90;;;;;;5043960;28;20060;-59
2023/05/26 02:32:39;;;;;;;29.02;5.22;;;11.70;99.90;;;;;;5035604;28;20491;-59
2023/05/26 02:35:07;;;;;;;32.22;6.03;;;11.70;99.90;;;;;;5036904;28;20057;-59
2023/05/26 02:37:34;;;;;;;30.63;6.75;;;11.60;99.90;;;;;;5040208;28;20065;-59
2023/05/26 02:40:01;;;;;;;25.95;5.03;;;11.70;99.90;;;;;;5032183;28;20053;-59
2023/05/26 02:42:28;;;;;;;25.38;5.28;;;11.70;99.90;;;;;;5035520;28;20045;-60
2023/05/26 02:44:54;;;;;;;29.08;5.45;;;11.70;99.90;;;;;;5026041;28;20044;-59
2023/05/26 02:47:21;;;;;;;29.05;5.93;;;11.60;99.90;;;;;;5035495;28;20546;-59
2023/05/26 02:49:48;;;;;;;30.85;7.00;;;11.60;99.90;;;;;;5043267;28;20045;-59
2023/05/26 02:52:15;;;;;;;33.28;5.55;;;11.60;99.90;;;;;;5044279;28;20045;-60
2023/05/26 02:54:41;;;;;;;27.35;4.88;;;11.60;99.90;;;;;;5032983;28;20057;-60
2023/05/26 02:57:08;;;;;;;29.40;6.68;;;11.50;99.90;;;;;;5032732;28;20100;-59
2023/05/26 02:59:35;;;;;;;34.15;6.50;;;11.50;99.90;;;;;;5040233;28;20107;-60
2023/05/26 03:02:02;;;;;;;32.13;5.80;;;11.60;99.90;;;;;;5041387;28;20041;-59
2023/05/26 03:04:28;;;;;;;26.83;6.32;;;11.50;99.90;;;;;;5035836;28;20049;-60
2023/05/26 03:06:55;;;;;;;34.90;7.40;;;11.60;99.90;;;;;;5035138;28;20046;-60
2023/05/26 03:09:22;;;;;;;31.17;5.28;;;11.60;99.90;;;;;;5038349;28;20059;-61
2023/05/26 03:11:49;;;;;;;23.63;5.32;;;11.60;99.90;;;;;;5039344;28;20048;-60
2023/05/26 03:14:16;;;;;;;33.17;6.45;;;11.50;99.90;;;;;;5036959;28;20053;-60
2023/05/26 03:16:43;;;;;;;26.27;4.82;;;11.50;99.90;;;;;;5037606;28;20052;-60
2023/05/26 03:19:10;;;;;;;24.25;4.97;;;11.50;99.90;;;;;;5039047;28;20077;-60
2023/05/26 03:21:37;;;;;;;23.13;4.55;;;11.50;99.90;;;;;;5042250;28;20091;-60
2023/05/26 03:24:15;;;;;;;27.90;6.50;;;11.50;99.90;;;;;;5039098;28;20061;-60
2023/05/26 03:26:42;;;;;;;27.30;5.97;;;11.50;99.90;;;;;;5036001;28;20057;-60
2023/05/26 03:29:09;;;;;;;16.30;4.50;;;11.50;99.90;;;;;;5036015;28;20036;-60
2023/05/26 03:31:36;;;;;;;41.50;7.32;;;11.50;99.90;;;;;;5038778;28;20045;-60
2023/05/26 03:34:03;;;;;;;26.50;4.88;;;11.50;99.90;;;;;;5023515;28;20053;-60
2023/05/26 03:36:30;;;;;;;24.63;5.57;;;11.50;99.90;;;;;;5039436;28;20085;-60
2023/05/26 03:38:57;;;;;;;29.98;5.97;;;11.50;99.90;;;;;;5031042;28;20045;-60
2023/05/26 03:41:24;;;;;;;31.75;6.07;;;11.50;99.90;;;;;;5040345;28;20388;-60
2023/05/26 03:43:50;;;;;;;21.77;5.00;;;11.40;99.90;;;;;;5020188;28;20483;-60
2023/05/26 03:46:17;;;;;;;38.08;6.65;;;11.50;99.90;;;;;;5030799;28;20045;-59
2023/05/26 03:48:44;;;;;;;34.20;7.18;;;11.40;99.90;;;;;;5042123;28;20421;-60
2023/05/26 03:51:11;;;;;;;25.02;5.57;;;11.40;99.90;;;;;;5032966;28;20049;-60
2023/05/26 03:53:37;;;;;;;26.15;5.35;;;11.40;99.90;;;;;;5040239;28;20598;-60
2023/05/26 03:56:05;;;;;;;32.65;7.18;;;11.40;99.90;;;;;;5046565;28;20052;-60
2023/05/26 03:58:31;;;;;;;27.40;5.60;;;11.40;99.90;;;;;;5035494;28;20411;-60
2023/05/26 04:00:58;;;;;;;27.10;6.07;;;11.50;99.90;;;;;;5038355;28;20091;-60
2023/05/26 04:03:26;;;;;;;20.08;4.68;;;11.50;99.90;;;;;;5037372;28;20045;-61
2023/05/26 04:05:53;;;;;;;25.00;7.30;;;11.50;99.90;;;;;;5022354;28;20114;-60
2023/05/26 04:08:20;;;;;;;27.77;5.10;;;11.40;99.90;;;;;;5035552;28;20180;-61
2023/05/26 04:10:47;;;;;;;32.65;5.00;;;11.40;99.90;;;;;;5037307;28;20099;-61
2023/05/26 04:13:14;;;;;;;23.30;4.72;;;11.50;99.90;;;;;;5041870;28;20065;-60
2023/05/26 04:15:42;;;;;;;26.08;5.05;;;11.50;99.90;;;;;;5038853;28;20196;-60
2023/05/26 04:18:10;;;;;;;25.58;5.40;;;11.50;99.90;;;;;;5038372;28;20242;-60
2023/05/26 04:20:37;;;;;;;30.17;5.03;;;11.40;99.90;;;;;;5041234;28;20057;-60
2023/05/26 04:23:04;;;;;;;20.90;5.43;;;11.30;99.90;;;;;;5045984;28;20507;-60
2023/05/26 04:25:32;;;;;;;25.08;6.00;;;11.30;99.90;;;;;;5042214;28;20037;-61
2023/05/26 04:27:58;;;;;;;21.73;5.43;;;11.30;99.90;;;;;;5037594;28;20040;-60
2023/05/26 04:30:25;;;;;;;19.60;4.90;;;11.30;99.90;;;;;;5040893;28;20103;-61
2023/05/26 04:32:55;;;;;;;24.10;5.00;;;11.40;99.90;;;;;;5044587;28;20115;-60
2023/05/26 04:35:22;;;;;;;24.42;6.22;;;11.40;99.90;;;;;;5039800;28;20515;-60
2023/05/26 04:37:50;;;;;;;26.20;4.53;;;11.40;99.90;;;;;;5035552;28;20130;-60
2023/05/26 04:40:18;;;;;;;34.53;5.22;;;11.40;99.90;;;;;;5039659;28;20048;-60
2023/05/26 04:42:48;;;;;;;30.95;5.20;;;11.50;99.90;;;;;;5044162;28;20633;-60
2023/05/26 04:45:15;;;;;;;41.35;8.32;;;11.50;99.90;;;;;;5040579;28;20086;-60
2023/05/26 04:47:42;;;;;;;24.33;4.93;;;11.60;99.90;;;;;;5037838;28;20045;-60
2023/05/26 04:50:12;;;;;;;32.10;5.03;;;11.60;99.90;;;;;;5041100;28;20111;-62
2023/05/26 04:52:40;;;;;;;24.17;6.07;;;11.60;99.90;;;;;;5040851;28;20049;-60
2023/05/26 04:55:08;;;;;;;24.15;4.50;;;11.60;99.90;;;;;;5037436;28;20049;-62
2023/05/26 04:57:35;;;;;;;25.33;4.90;;;11.60;99.90;;;;;;5041134;28;20411;-59
2023/05/26 05:00:05;;;;;;;30.48;4.65;;;11.60;99.90;;;;;;5040219;28;20542;-59
2023/05/26 05:02:32;;;;;;;21.20;4.18;;;11.70;99.90;;;;;;5040209;28;20046;-59
2023/05/26 05:04:59;;;;;;;21.17;4.38;;;11.70;99.90;;;;;;5030870;28;20096;-60
2023/05/26 05:07:26;;;;;;;41.33;5.93;;;11.70;99.90;;;;;;5024169;28;20049;-61
2023/05/26 05:09:52;;;;;;;30.92;5.95;;;11.70;99.90;;;;;;5037439;28;20114;-60
2023/05/26 05:12:19;;;;;;;20.33;4.53;;;11.70;99.90;;;;;;5036262;28;20107;-60
2023/05/26 05:14:46;;;;;;;24.25;5.22;;;11.70;99.90;;;;;;5044878;28;20492;-60
2023/05/26 05:17:13;;;;;;;24.92;4.43;;;11.70;99.90;;;;;;5043100;28;20483;-60
2023/05/26 05:19:40;;;;;;;15.10;4.72;;;11.70;99.90;;;;;;5036007;28;20053;-60
2023/05/26 05:22:07;;;;;;;21.70;5.40;;;11.80;99.90;;;;;;5041444;28;20059;-60
2023/05/26 05:24:33;;;;;;;23.95;6.10;;;11.80;99.90;;;;;;5046329;28;20107;-60
2023/05/26 05:27:01;;;;;;;26.30;5.00;;;11.80;99.90;;;;;;5041995;28;20126;-59
2023/05/26 05:29:28;;;;;;;21.08;5.18;;;11.90;99.90;;;;;;5035155;28;20100;-59
2023/05/26 05:31:55;;;;;;;23.35;3.90;;;11.80;99.90;;;;;;5036870;28;20049;-59
2023/05/26 05:34:21;;;;;;;26.38;5.05;;;11.90;99.90;;;;;;5036092;28;20047;-59
2023/05/26 05:36:48;;;;;;;37.13;6.18;;;11.90;99.90;;;;;;5033348;28;20061;-60
2023/05/26 05:39:15;;;;;;;21.70;4.55;;;11.90;99.90;;;;;;5039341;28;20052;-60
2023/05/26 05:41:42;;;;;;;29.30;5.45;;;12.00;99.90;;;;;;5039492;28;20107;-60
2023/05/26 05:44:08;;;;;;;29.63;5.22;;;12.00;99.90;;;;;;5042338;28;20044;-61
2023/05/26 05:46:36;;;;;;;27.25;5.13;;;12.10;99.90;;;;;;5035884;28;20057;-60
2023/05/26 05:49:03;;;;;;;24.60;5.03;;;12.00;99.90;;;;;;5033422;28;20044;-60
2023/05/26 05:51:31;;;;;;;40.75;6.75;;;12.10;99.90;;;;;;5042966;28;20076;-60
2023/05/26 05:53:58;;;;;;;34.08;5.43;;;12.10;99.90;;;;;;5038984;28;20590;-59
2023/05/26 05:56:26;;;;;;;21.33;4.63;;;12.20;99.90;;;;;;5039516;28;20056;-60
2023/05/26 05:58:53;;;;;;;35.38;5.60;;;12.30;99.90;;;;;;5036228;28;20096;-60
2023/05/26 06:01:20;;;;;;;25.02;7.43;;;12.20;99.90;;;;;;5026633;28;20565;-60
2023/05/26 06:03:46;;;;;;;21.38;4.78;;;12.20;99.90;;;;;;5044771;28;20052;-60
2023/05/26 06:06:13;;;;;;;25.70;5.93;;;12.20;99.90;;;;;;5038232;28;20037;-60
2023/05/26 06:08:40;;;;;;;31.08;5.35;;;12.30;99.90;;;;;;5043687;28;20408;-60
2023/05/26 06:11:07;;;;;;;35.97;6.80;;;12.40;99.90;;;;;;5034981;28;20504;-61
2023/05/26 06:13:34;;;;;;;29.13;4.38;;;12.30;99.90;;;;;;5033107;28;20103;-61
2023/05/26 06:16:01;;;;;;;26.77;6.32;;;12.30;99.90;;;;;;5039744;28;20049;-61
2023/05/26 06:18:27;;;;;;;31.08;4.90;;;12.40;99.90;;;;;;5040587;28;20037;-61
2023/05/26 06:20:54;;;;;;;28.48;6.00;;;12.40;99.90;;;;;;5038706;28;20828;-61
2023/05/26 06:23:21;;;;;;;31.98;4.90;;;12.50;99.90;;;;;;5036803;28;20045;-61
2023/05/26 06:25:48;;;;;;;28.67;5.15;;;12.50;99.90;;;;;;5040688;28;20503;-61
2023/05/26 06:28:15;;;;;;;23.45;4.28;;;12.60;99.90;;;;;;5031624;28;20053;-59
2023/05/26 06:30:42;;;;;;;31.88;4.75;;;12.50;99.90;;;;;;5040387;28;20111;-60
2023/05/26 06:33:08;;;;;;;25.40;4.50;;;12.60;99.90;;;;;;5041073;28;20102;-59
2023/05/26 06:35:35;;;;;;;20.65;4.88;;;12.60;99.90;;;;;;5038695;28;20057;-60
2023/05/26 06:38:02;;;;;;;21.33;3.72;;;12.70;99.90;;;;;;5035802;28;20126;-61
2023/05/26 06:40:29;;;;;;;22.90;4.63;;;12.80;99.90;;;;;;5018401;28;20045;-61
2023/05/26 06:42:56;;;;;;;21.33;4.60;;;12.80;99.90;;;;;;5018360;28;20079;-60
2023/05/26 06:45:23;;;;;;;17.75;5.88;;;12.80;99.90;;;;;;5042829;28;20053;-60
2023/05/26 06:47:49;;;;;;;26.75;4.43;;;12.90;99.90;;;;;;5033535;28;20048;-63
2023/05/26 06:50:16;;;;;;;24.58;4.28;;;12.90;99.90;;;;;;5044673;28;20508;-61
2023/05/26 06:52:43;;;;;;;26.60;5.85;;;12.90;99.90;;;;;;5043635;28;20057;-59
2023/05/26 06:55:10;;;;;;;29.90;5.43;;;12.90;99.90;;;;;;5032813;28;20046;-61
2023/05/26 06:57:37;;;;;;;27.27;4.10;;;12.90;99.90;;;;;;5034565;28;20057;-61
2023/05/26 07:00:04;;;;;;;30.27;4.85;;;12.90;99.90;;;;;;5032367;28;20542;-60
2023/05/26 07:02:31;;;;;;;26.30;4.85;;;12.90;99.90;;;;;;5027676;28;20049;-60
2023/05/26 07:04:58;;;;;;;21.92;4.82;;;13.00;99.90;;;;;;5038246;28;20049;-59
2023/05/26 07:07:25;;;;;;;33.38;5.15;;;13.10;99.90;;;;;;5037878;28;20048;-60
2023/05/26 07:09:52;;;;;;;18.05;4.35;;;13.10;99.90;;;;;;5037198;28;20049;-60
2023/05/26 07:12:19;;;;;;;23.40;4.15;;;13.10;99.90;;;;;;5035361;28;20045;-61
2023/05/26 07:14:46;;;;;;;38.40;5.53;;;13.10;99.90;;;;;;5037590;28;20148;-62
2023/05/26 07:17:13;;;;;;;32.85;5.35;;;13.20;99.90;;;;;;5045186;28;20114;-61
2023/05/26 07:19:40;;;;;;;18.35;5.10;;;13.30;99.90;;;;;;5034539;28;20067;-61
2023/05/26 07:22:07;;;;;;;27.30;5.88;;;13.30;99.90;;;;;;5034577;28;20072;-62
2023/05/26 07:24:34;;;;;;;29.45;4.88;;;13.30;99.90;;;;;;5036117;28;20045;-60
2023/05/26 07:27:01;;;;;;;33.75;7.07;;;13.30;99.90;;;;;;5038217;28;20045;-61
2023/05/26 07:29:32;;;;;;;22.17;4.85;;;13.30;99.90;;;;;;5045636;28;20118;-61
2023/05/26 07:31:58;;;;;;;15.57;4.95;;;13.30;99.90;;;;;;5039582;28;20103;-61
2023/05/26 07:34:26;;;;;;;27.98;4.57;;;13.40;99.90;;;;;;5044827;28;20053;-61
2023/05/26 07:36:52;;;;;;;22.42;5.25;;;13.50;99.90;;;;;;5033597;28;20119;-61
2023/05/26 07:39:19;;;;;;;36.25;6.88;;;13.50;99.90;;;;;;5042053;28;20522;-60
2023/05/26 07:41:46;;;;;;;30.75;5.57;;;13.60;99.90;;;;;;5036244;28;20117;-61
2023/05/26 07:44:15;;;;;;;29.30;4.72;;;13.60;99.90;;;;;;5014068;28;20052;-60
2023/05/26 07:46:42;;;;;;;25.90;5.95;;;13.60;99.90;;;;;;5036842;28;20594;-60
2023/05/26 07:49:09;;;;;;;29.30;6.30;;;13.60;99.90;;;;;;5043590;28;20055;-61
2023/05/26 07:51:36;;;;;;;28.75;6.18;;;13.70;99.90;;;;;;5032739;28;20045;-60
2023/05/26 07:54:03;;;;;;;26.33;5.25;;;13.70;99.90;;;;;;5033111;28;20104;-61
2023/05/26 07:56:29;;;;;;;31.17;5.65;;;13.70;99.90;;;;;;5034774;28;20053;-61
2023/05/26 07:58:56;;;;;;;21.73;5.45;;;13.70;99.90;;;;;;5041001;28;20060;-61
2023/05/26 08:01:23;;;;;;;30.77;5.25;;;13.80;99.90;;;;;;5040159;28;20154;-60
2023/05/26 08:03:50;;;;;;;21.30;4.10;;;13.90;99.90;;;;;;5035921;28;20053;-62
2023/05/26 08:06:17;;;;;;;23.65;5.90;;;13.90;99.90;;;;;;5037611;28;20083;-61
2023/05/26 08:08:50;;;;;;;21.70;4.93;;;13.90;99.90;;;;;;5036697;28;20099;-61
2023/05/26 08:11:17;;;;;;;26.88;4.97;;;13.90;99.90;;;;;;5031906;28;20049;-60
2023/05/26 08:13:43;;;;;;;30.83;5.75;;;13.80;99.90;;;;;;5020940;28;20103;-62
2023/05/26 08:16:10;;;;;;;22.08;4.25;;;13.90;99.90;;;;;;5034665;28;20045;-59
2023/05/26 08:18:38;;;;;;;25.40;6.45;;;13.90;99.90;;;;;;5030872;28;20058;-60
2023/05/26 08:21:05;;;;;;;35.45;5.18;;;14.00;99.90;;;;;;5034231;28;20078;-60
2023/05/26 08:23:32;;;;;;;26.98;4.93;;;14.00;99.90;;;;;;5037772;28;20464;-60
2023/05/26 08:25:58;;;;;;;26.73;6.85;;;14.10;99.90;;;;;;5036663;28;20037;-60
2023/05/26 08:28:25;;;;;;;24.38;5.13;;;14.10;99.90;;;;;;5037497;28;20057;-61
2023/05/26 08:30:52;;;;;;;19.55;4.47;;;14.20;99.90;;;;;;5038798;28;20049;-61
2023/05/26 08:33:19;;;;;;;25.90;4.57;;;14.20;99.90;;;;;;5013488;28;20141;-61
2023/05/26 08:35:46;;;;;;;25.90;5.90;;;14.20;99.90;;;;;;5041146;28;20090;-61
2023/05/26 08:38:16;;;;;;;27.58;4.93;;;14.10;99.90;;;;;;5034757;28;20051;-61
2023/05/26 08:40:43;;;;;;;20.02;4.93;;;14.20;99.90;;;;;;5034983;28;20437;-61
2023/05/26 08:43:11;;;;;;;25.30;4.75;;;14.30;99.90;;;;;;5019063;28;20495;-61
2023/05/26 08:45:38;;;;;;;29.00;5.68;;;14.40;99.90;;;;;;5022966;28;20048;-61
2023/05/26 08:48:07;;;;;;;20.45;4.47;;;14.40;99.90;;;;;;5018777;28;20416;-61
2023/05/26 08:50:35;;;;;;;33.47;6.00;;;14.40;99.90;;;;;;5035531;28;20048;-61
2023/05/26 08:53:03;;;;;;;29.15;5.82;;;14.40;99.90;;;;;;5023634;28;20049;-61
2023/05/26 08:55:50;;;;;;;25.85;5.85;;;14.50;99.90;;;;;;5032483;28;20053;-62
2023/05/26 08:58:16;;;;;;;24.85;4.25;;;14.50;99.90;;;;;;5037183;28;20080;-62
2023/05/26 09:00:45;;;;;;;23.98;5.03;;;14.50;99.90;;;;;;5032648;28;20140;-61
2023/05/26 09:03:12;;;;;;;25.92;4.97;;;14.60;99.90;;;;;;5024994;28;20049;-61
2023/05/26 09:05:39;;;;;;;28.80;4.90;;;14.70;99.90;;;;;;5037969;28;20076;-61
2023/05/26 09:08:06;;;;;;;27.75;4.97;;;14.60;99.90;;;;;;5025212;28;20052;-61
2023/05/26 09:10:33;;;;;;;22.17;4.57;;;14.60;99.90;;;;;;5032880;28;20569;-61
2023/05/26 09:13:05;;;;;;;20.00;4.57;;;14.70;99.90;;;;;;5032092;28;20056;-61
2023/05/26 09:15:32;;;;;;;29.70;4.97;;;14.80;99.90;;;;;;5036765;28;20064;-61
2023/05/26 09:18:07;;;;;;;32.20;5.50;;;14.90;99.90;;;;;;5035491;28;20040;-61
2023/05/26 09:20:44;;;;;;;27.77;5.18;;;15.00;99.90;;;;;;5039514;28;20092;-60
2023/05/26 09:23:11;;;;;;;16.90;4.03;;;15.10;99.90;;;;;;5039666;28;20137;-60
2023/05/26 09:25:40;;;;;;;21.92;5.55;;;15.20;99.90;;;;;;5041368;28;20131;-61
2023/05/26 09:28:08;;;;;;;25.00;5.25;;;15.30;99.90;;;;;;5039931;28;20107;-61
2023/05/26 09:30:35;;;;;;;26.40;5.45;;;15.20;99.90;;;;;;5035784;28;20053;-61
2023/05/26 09:33:06;;;;;;;26.45;5.43;;;15.20;99.90;;;;;;5018232;28;20104;-61
2023/05/26 09:35:37;;;;;;;21.60;4.30;;;15.20;99.90;;;;;;5038691;28;20049;-61
2023/05/26 09:38:08;;;;;;;20.67;5.18;;;15.30;99.90;;;;;;5029688;28;20045;-60
2023/05/26 09:40:35;;;;;;;22.67;4.90;;;15.30;99.90;;;;;;5040365;28;20057;-61
2023/05/26 09:43:02;;;;;;;23.13;4.35;;;15.30;99.90;;;;;;5039870;28;20045;-61
2023/05/26 09:45:35;;;;;;;25.02;4.43;;;15.50;99.90;;;;;;5043288;28;20037;-61
2023/05/26 09:48:03;;;;;;;24.92;4.82;;;15.60;99.90;;;;;;5042435;28;20084;-61
2023/05/26 09:50:34;;;;;;;28.10;4.28;;;15.70;99.90;;;;;;5017507;28;20044;-61
2023/05/26 09:53:02;;;;;;;32.72;6.07;;;15.80;99.90;;;;;;5032628;28;20115;-61
2023/05/26 09:55:32;;;;;;;21.20;5.10;;;15.90;99.90;;;;;;5018793;28;20037;-61
2023/05/26 09:58:04;;;;;;;25.42;5.35;;;15.90;99.90;;;;;;5038401;28;20050;-61
2023/05/26 10:00:33;;;;;;;22.45;5.60;;;15.90;99.90;;;;;;5039941;28;20064;-61
2023/05/26 10:03:03;;;;;;;34.30;4.72;;;16.10;99.90;;;;;;5043226;28;20103;-62
2023/05/26 10:05:32;;;;;;;24.25;5.40;;;16.50;99.90;;;;;;5025368;28;20052;-61
2023/05/26 10:07:59;;;;;;;27.48;5.15;;;16.70;99.90;;;;;;5010934;28;20061;-61
2023/05/26 10:10:28;;;;;;;27.85;5.25;;;17.20;99.90;;;;;;5036966;28;20076;-61
2023/05/26 10:12:55;;;;;;;22.42;4.93;;;17.50;99.90;;;;;;5012911;28;20053;-61
2023/05/26 10:15:22;;;;;;;18.48;4.57;;;17.90;99.90;;;;;;5044594;28;20110;-61
2023/05/26 10:17:49;;;;;;;25.40;4.95;;;18.00;98.70;;;;;;5035665;28;20049;-61
2023/05/26 10:20:16;;;;;;;18.50;4.35;;;18.00;98.70;;;;;;5040043;28;20041;-61
2023/05/26 10:22:58;;;;;;;18.38;4.10;;;18.20;98.80;;;;;;5016916;28;20164;-61
2023/05/26 10:25:32;;;;;;;24.80;4.85;;;18.30;98.70;;;;;;5035062;28;20365;-62
2023/05/26 10:28:10;;;;;;;29.30;7.25;;;18.60;97.60;;;;;;5019327;28;20106;-61
2023/05/26 10:30:38;;;;;;;21.77;4.30;;;18.60;95.10;;;;;;5014261;28;20041;-61
2023/05/26 10:33:10;;;;;;;22.42;4.43;;;18.70;96.80;;;;;;5019750;28;20077;-61
2023/05/26 10:35:37;;;;;;;20.98;5.53;;;18.80;95.60;;;;;;5037919;28;20080;-61
2023/05/26 10:38:05;;;;;;;22.60;4.03;;;19.00;94.40;;;;;;5037605;28;20098;-63
2023/05/26 10:40:45;;;;;;;24.30;4.50;;;18.90;95.70;;;;;;5032033;28;20049;-62
2023/05/26 10:43:13;;;;;;;36.60;4.47;;;18.90;93.90;;;;;;5035516;28;20503;-62
2023/05/26 10:45:45;;;;;;;25.98;3.90;;;19.00;95.20;;;;;;5037653;28;20079;-61
2023/05/26 10:48:12;;;;;;;23.40;5.13;;;18.90;93.90;;;;;;5033133;28;20095;-62
2023/05/26 10:50:58;;;;;;;23.52;5.47;;;18.70;94.20;;;;;;5037089;28;20052;-62
2023/05/26 10:53:25;;;;;;;17.65;3.85;;;18.40;92.40;;;;;;5032606;28;20045;-61
2023/05/26 10:56:05;;;;;;;21.75;4.65;;;18.20;94.80;;;;;;5030128;28;20053;-61
2023/05/26 10:58:33;;;;;;;20.60;4.93;;;18.00;94.70;;;;;;5035034;28;20144;-61
2023/05/26 11:01:16;;;;;;;36.45;6.57;;;17.80;94.60;;;;;;5042718;28;20428;-61
2023/05/26 11:03:44;;;;;;;20.43;4.67;;;17.80;94.50;;;;;;5035301;28;20048;-61
2023/05/26 11:06:14;;;;;;;17.33;3.88;;;17.70;95.30;;;;;;5040974;28;20049;-61
2023/05/26 11:08:48;;;;;;;25.45;5.05;;;17.60;95.80;;;;;;5037822;28;20056;-62
2023/05/26 11:11:29;;;;;;;30.23;5.65;;;17.60;95.10;;;;;;5029629;28;20049;-60
2023/05/26 11:14:06;;;;;;;19.00;4.32;;;17.70;94.20;;;;;;5041822;28;20068;-60
2023/05/26 11:16:35;;;;;;;23.75;5.15;;;17.60;94.80;;;;;;5014838;28;20049;-60
2023/05/26 11:19:06;;;;;;;22.58;6.53;;;17.60;94.70;;;;;;5036752;28;20103;-60
2023/05/26 11:21:34;;;;;;;24.77;3.60;;;17.60;94.00;;;;;;5043106;28;20040;-60
2023/05/26 11:24:02;;;;;;;19.67;5.07;;;17.50;94.90;;;;;;5038485;28;20048;-60
2023/05/26 11:26:31;;;;;;;20.98;4.10;;;17.60;94.70;;;;;;5045392;28;20048;-60
2023/05/26 11:29:04;;;;;;;27.33;5.57;;;17.60;95.10;;;;;;5032402;28;20106;-60
2023/05/26 11:31:31;;;;;;;15.82;4.00;;;17.50;95.10;;;;;;5029710;28;20459;-60
2023/05/26 11:33:58;;;;;;;23.35;4.68;;;17.50;95.60;;;;;;5018354;28;20522;-61
2023/05/26 11:36:25;;;;;;;24.98;4.38;;;17.60;95.60;;;;;;5035317;28;20548;-61
2023/05/26 11:39:01;;;;;;;23.23;4.78;;;17.60;94.80;;;;;;5033216;28;20055;-60
2023/05/26 11:41:29;;;;;;;16.63;3.80;;;17.70;94.80;;;;;;5036980;28;20080;-60
2023/05/26 11:43:56;;;;;;;21.30;4.63;;;17.60;95.10;;;;;;5033191;28;20049;-61
2023/05/26 11:46:26;;;;;;;27.00;5.03;;;17.60;94.70;;;;;;5010917;28;20054;-60
2023/05/26 11:48:53;;;;;;;13.88;4.03;;;17.60;94.70;;;;;;5038681;28;20049;-60
2023/05/26 11:51:20;;;;;;;16.13;4.07;;;17.50;94.80;;;;;;5037605;28;20053;-61
2023/05/26 11:53:52;;;;;;;26.13;4.13;;;17.60;95.30;;;;;;5043769;28;20050;-60
2023/05/26 11:56:18;;;;;;;25.13;5.80;;;17.70;94.80;;;;;;5000910;28;20052;-60
2023/05/26 11:58:56;;;;;;;18.23;4.85;;;17.80;95.00;;;;;;5043634;28;20061;-61
2023/05/26 12:01:25;;;;;;;29.15;5.22;;;17.90;94.80;;;;;;5037505;28;20132;-60
2023/05/26 12:03:52;;;;;;;30.83;4.72;;;18.00;95.30;;;;;;5036478;28;20049;-60
2023/05/26 12:06:21;;;;;;;24.67;6.35;;;18.10;94.90;;;;;;5036334;28;20052;-60
2023/05/26 12:08:53;;;;;;;21.52;4.40;;;18.20;94.10;;;;;;5032534;28;20088;-60
2023/05/26 12:11:29;;;;;;;18.98;4.70;;;18.20;94.40;;;;;;5039938;28;20045;-60
2023/05/26 12:13:57;;;;;;;24.25;4.60;;;18.30;93.70;;;;;;5038058;28;20046;-61
2023/05/26 12:16:29;;;;;;;17.55;4.07;;;18.30;94.10;;;;;;5035894;28;20041;-61
2023/05/26 12:18:57;;;;;;;23.60;4.55;;;18.30;93.70;;;;;;5032511;28;20048;-61
2023/05/26 12:21:25;;;;;;;22.35;4.57;;;18.30;94.10;;;;;;5041598;28;20136;-61
2023/05/26 12:23:53;;;;;;;11.45;3.80;;;18.30;94.50;;;;;;5034729;28;20049;-60
2023/05/26 12:26:27;;;;;;;20.60;4.40;;;18.40;94.00;;;;;;5017138;28;20056;-60
2023/05/26 12:29:13;;;;;;;24.48;4.07;;;18.40;94.00;;;;;;5034189;28;20052;-60
2023/05/26 12:31:43;;;;;;;24.25;5.00;;;18.50;92.00;;;;;;5036867;28;20103;-60
2023/05/26 12:34:15;;;;;;;19.75;4.20;;;18.50;92.50;;;;;;5033775;28;20041;-60
2023/05/26 12:36:41;;;;;;;19.48;4.03;;;18.50;92.40;;;;;;5042300;28;20458;-60
2023/05/26 12:39:10;;;;;;;17.95;3.47;;;18.50;91.90;;;;;;5040076;28;20051;-60
2023/05/26 12:41:40;;;;;;;20.83;3.47;;;18.50;92.40;;;;;;5034574;28;20045;-60
2023/05/26 12:44:07;;;;;;;20.60;3.72;;;18.60;92.60;;;;;;5039168;28;20052;-60